Time;durP1;ratioP1;P1;durP2;ratioP2;P2;SDS_P1;SDS_P2;PMS_P1;PMS_P2;Temp;Humidity;BMP_temperature;BMP_pressure;BME280_temperature;BME280_humidity;BME280_pressure;Samples;Min_cycle;Max_cycle;Signal;HPM_P1;HPM_P2
2022/12/05 00:01:46;;;;;;;15.13;12.70;;;5.60;99.90;;;;;;6250234;28;20475;-66
2022/12/05 00:04:49;;;;;;;15.67;11.83;;;5.70;99.90;;;;;;6250155;28;21097;-67
2022/12/05 00:07:53;;;;;;;16.67;13.60;;;5.70;99.90;;;;;;6249907;28;20471;-61
2022/12/05 00:10:56;;;;;;;17.67;13.90;;;5.70;99.90;;;;;;6249903;28;20485;-66
2022/12/05 00:14:01;;;;;;;16.27;13.27;;;5.70;99.90;;;;;;6249786;28;20474;-66
2022/12/05 00:17:04;;;;;;;15.43;13.73;;;5.80;99.90;;;;;;6249894;28;20545;-66
2022/12/05 00:20:09;;;;;;;19.00;13.50;;;5.70;99.90;;;;;;6250011;28;20483;-66
2022/12/05 00:23:13;;;;;;;16.37;13.37;;;5.60;99.90;;;;;;6259920;28;20946;-64
2022/12/05 00:26:17;;;;;;;15.77;12.83;;;5.60;99.90;;;;;;6274492;28;20544;-64
2022/12/05 00:29:20;;;;;;;15.60;13.50;;;5.70;99.90;;;;;;6274450;28;20479;-65
2022/12/05 00:32:23;;;;;;;14.87;12.60;;;5.70;99.90;;;;;;6274313;28;20474;-61
2022/12/05 00:35:27;;;;;;;17.33;13.57;;;5.70;99.90;;;;;;6274065;28;20515;-64
2022/12/05 00:38:31;;;;;;;17.93;13.43;;;5.80;99.90;;;;;;6250381;28;20532;-61
2022/12/05 00:41:34;;;;;;;14.97;12.43;;;5.80;99.90;;;;;;6246942;28;20558;-66
2022/12/05 00:44:37;;;;;;;15.90;14.20;;;5.80;99.90;;;;;;6249623;28;20455;-64
2022/12/05 00:47:41;;;;;;;17.17;13.20;;;5.80;99.90;;;;;;6249013;28;20489;-64
2022/12/05 00:50:44;;;;;;;15.20;12.80;;;5.80;99.90;;;;;;6249207;28;20467;-61
2022/12/05 00:53:49;;;;;;;17.03;14.30;;;5.80;99.90;;;;;;6249576;28;20439;-66
2022/12/05 00:56:55;;;;;;;19.17;15.00;;;5.80;99.90;;;;;;6249327;28;20467;-62
2022/12/05 00:59:58;;;;;;;17.90;13.67;;;5.80;99.90;;;;;;6249111;28;20485;-61
2022/12/05 01:03:01;;;;;;;16.10;13.23;;;5.80;99.90;;;;;;6249607;28;20473;-61
2022/12/05 01:06:05;;;;;;;16.70;13.13;;;5.80;99.90;;;;;;6249189;28;20801;-60
2022/12/05 01:09:12;;;;;;;15.60;11.93;;;5.80;99.90;;;;;;6252517;28;20527;-61
2022/12/05 01:12:15;;;;;;;17.50;13.70;;;5.70;99.90;;;;;;6254354;28;20529;-61
2022/12/05 01:15:19;;;;;;;17.60;13.40;;;5.80;99.90;;;;;;6253755;28;20981;-66
2022/12/05 01:18:23;;;;;;;17.00;13.10;;;5.70;99.90;;;;;;6253594;28;20816;-66
2022/12/05 01:21:26;;;;;;;19.47;14.23;;;5.60;99.90;;;;;;6253991;28;20482;-66
2022/12/05 01:24:31;;;;;;;16.60;11.83;;;5.70;99.90;;;;;;6254075;28;20486;-63
2022/12/05 01:27:34;;;;;;;19.70;13.67;;;5.70;99.90;;;;;;6254688;28;20490;-61
2022/12/05 01:30:38;;;;;;;17.47;13.30;;;5.60;99.90;;;;;;6254906;28;20474;-61
2022/12/05 01:33:41;;;;;;;15.30;11.77;;;5.60;99.90;;;;;;6253585;28;20764;-61
2022/12/05 01:36:45;;;;;;;17.90;13.57;;;5.70;99.90;;;;;;6253428;28;20473;-62
2022/12/05 01:39:50;;;;;;;18.50;12.00;;;5.70;99.90;;;;;;6253501;28;20498;-64
2022/12/05 01:42:53;;;;;;;15.83;12.47;;;5.70;99.90;;;;;;6253390;28;20467;-66
2022/12/05 01:45:56;;;;;;;18.20;13.10;;;5.70;99.90;;;;;;6253132;28;21005;-66
2022/12/05 01:49:04;;;;;;;21.47;13.70;;;5.70;99.90;;;;;;6252845;28;20536;-63
2022/12/05 01:52:11;;;;;;;19.60;13.23;;;5.70;99.90;;;;;;6252859;28;20800;-62
2022/12/05 01:55:19;;;;;;;16.87;14.00;;;5.70;99.90;;;;;;6252699;28;20482;-61
2022/12/05 01:58:23;;;;;;;18.90;13.30;;;5.60;99.90;;;;;;6253175;28;20479;-66
2022/12/05 02:01:26;;;;;;;25.40;15.83;;;5.60;99.90;;;;;;6252860;28;20471;-66
2022/12/05 02:04:29;;;;;;;24.67;16.17;;;5.70;99.90;;;;;;6253070;28;20545;-64
2022/12/05 02:07:34;;;;;;;20.37;14.47;;;5.70;99.90;;;;;;6252540;28;20487;-61
2022/12/05 02:10:44;;;;;;;21.40;14.03;;;5.70;99.90;;;;;;6252853;28;21081;-64
2022/12/05 02:14:04;;;;;;;23.10;15.23;;;5.70;99.90;;;;;;6253058;28;20475;-64
2022/12/05 02:17:22;;;;;;;25.63;16.10;;;5.70;99.90;;;;;;6254030;28;20463;-64
2022/12/05 02:20:44;;;;;;;20.27;14.03;;;5.60;99.90;;;;;;6251996;28;20483;-64
2022/12/05 02:24:21;;;;;;;20.10;14.70;;;5.60;99.90;;;;;;6252686;28;20462;-61
2022/12/05 02:27:48;;;;;;;21.73;14.00;;;5.60;99.90;;;;;;6250816;28;20475;-61
2022/12/05 02:30:57;;;;;;;19.03;13.10;;;5.60;99.90;;;;;;6251961;28;20801;-61
2022/12/05 02:34:07;;;;;;;26.63;15.87;;;5.50;99.90;;;;;;6252313;28;20548;-61
2022/12/05 02:37:14;;;;;;;22.53;13.60;;;5.60;99.90;;;;;;6251960;28;20463;-61
2022/12/05 02:40:25;;;;;;;22.27;14.90;;;5.50;99.90;;;;;;6251717;28;20498;-61
2022/12/05 02:43:35;;;;;;;23.57;13.90;;;5.50;99.90;;;;;;6251923;28;20490;-61
2022/12/05 02:46:42;;;;;;;26.70;16.60;;;5.50;99.90;;;;;;6250611;28;20815;-61
2022/12/05 02:49:45;;;;;;;23.10;15.87;;;5.50;99.90;;;;;;6243303;28;20467;-61
2022/12/05 02:52:51;;;;;;;23.67;16.23;;;5.50;99.90;;;;;;6242434;28;20946;-61
2022/12/05 02:55:55;;;;;;;24.13;16.23;;;5.50;99.90;;;;;;6251444;28;20533;-61
2022/12/05 02:58:58;;;;;;;25.00;14.80;;;5.50;99.90;;;;;;6251567;28;20467;-61
2022/12/05 03:02:03;;;;;;;24.33;16.90;;;5.50;99.90;;;;;;6251543;28;21171;-60
2022/12/05 03:05:19;;;;;;;26.30;15.93;;;5.40;99.90;;;;;;6250039;28;20471;-61
2022/12/05 03:08:25;;;;;;;24.17;16.50;;;5.40;99.90;;;;;;6250498;28;20812;-60
2022/12/05 03:11:34;;;;;;;20.77;14.67;;;5.50;99.90;;;;;;6250480;28;20502;-61
2022/12/05 03:14:41;;;;;;;25.07;16.40;;;5.50;99.90;;;;;;6250010;28;20451;-61
2022/12/05 03:17:58;;;;;;;22.27;14.63;;;5.50;99.90;;;;;;6249895;28;20424;-60
2022/12/05 03:21:08;;;;;;;22.67;15.57;;;5.60;99.90;;;;;;6246074;28;20460;-61
2022/12/05 03:24:14;;;;;;;28.33;16.50;;;5.60;99.90;;;;;;6248385;28;20955;-61
2022/12/05 03:27:25;;;;;;;25.17;16.70;;;5.60;99.90;;;;;;6249564;28;20546;-61
2022/12/05 03:30:31;;;;;;;26.00;16.90;;;5.60;99.90;;;;;;6249250;28;20967;-61
2022/12/05 03:33:41;;;;;;;26.83;16.53;;;5.60;99.90;;;;;;6249798;28;20486;-61
2022/12/05 03:36:49;;;;;;;22.93;15.53;;;5.60;99.90;;;;;;6252390;28;20467;-61
2022/12/05 03:40:04;;;;;;;23.77;15.87;;;5.60;99.90;;;;;;6253340;28;20483;-61
2022/12/05 03:43:12;;;;;;;22.63;14.63;;;5.60;99.90;;;;;;6251127;28;20460;-61
2022/12/05 03:46:22;;;;;;;21.77;14.53;;;5.60;99.90;;;;;;6250439;28;20475;-61
2022/12/05 03:49:34;;;;;;;25.40;15.70;;;5.60;99.90;;;;;;6259738;28;20634;-61
2022/12/05 03:52:44;;;;;;;19.10;13.00;;;5.60;99.90;;;;;;6250277;28;20530;-61
2022/12/05 03:56:10;;;;;;;23.93;15.77;;;5.60;99.90;;;;;;6246021;28;20815;-61
2022/12/05 03:59:19;;;;;;;28.10;16.77;;;5.50;99.90;;;;;;6249936;28;20505;-61
2022/12/05 04:02:28;;;;;;;31.67;17.33;;;5.40;99.90;;;;;;6249828;28;20475;-61
2022/12/05 04:05:39;;;;;;;30.13;17.67;;;5.40;99.90;;;;;;6249832;28;20826;-61
2022/12/05 04:08:50;;;;;;;30.27;18.23;;;5.40;99.90;;;;;;6249856;28;20478;-62
2022/12/05 04:11:57;;;;;;;31.60;19.40;;;5.20;99.90;;;;;;6249868;28;20443;-61
2022/12/05 04:15:05;;;;;;;39.27;19.97;;;5.20;99.90;;;;;;6249941;28;20463;-61
2022/12/05 04:18:09;;;;;;;41.53;19.27;;;5.20;99.90;;;;;;6249821;28;20810;-61
2022/12/05 04:28:05;;;;;;;30.97;18.10;;;5.20;99.90;;;;;;6249718;28;20888;-61
2022/12/05 04:31:11;;;;;;;31.00;19.37;;;5.20;99.90;;;;;;6248925;28;20475;-61
2022/12/05 04:34:16;;;;;;;35.77;19.10;;;5.30;99.90;;;;;;6249168;28;20490;-61
2022/12/05 04:37:25;;;;;;;32.47;17.70;;;5.40;99.90;;;;;;6249289;28;20475;-61
2022/12/05 04:40:32;;;;;;;32.07;19.10;;;5.30;99.90;;;;;;6249176;28;21171;-61
2022/12/05 04:43:40;;;;;;;35.03;20.03;;;5.30;99.90;;;;;;6248907;28;20475;-61
2022/12/05 04:46:45;;;;;;;28.33;18.07;;;5.40;99.90;;;;;;6250561;28;20475;-61
2022/12/05 04:49:49;;;;;;;29.90;17.67;;;5.30;99.90;;;;;;6256244;28;20491;-61
2022/12/05 04:52:59;;;;;;;31.17;18.30;;;5.30;99.90;;;;;;6249254;28;20561;-61
2022/12/05 04:56:05;;;;;;;26.17;16.63;;;5.30;99.90;;;;;;6249279;28;20471;-61
2022/12/05 04:59:08;;;;;;;25.37;16.53;;;5.40;99.90;;;;;;6248530;28;20480;-61
2022/12/05 05:02:15;;;;;;;25.50;17.67;;;5.40;99.90;;;;;;6248930;28;20470;-61
2022/12/05 05:05:20;;;;;;;25.90;15.90;;;5.40;99.90;;;;;;6248652;28;20467;-61
2022/12/05 05:08:28;;;;;;;23.93;15.13;;;5.40;99.90;;;;;;6248692;28;20497;-62
2022/12/05 05:11:34;;;;;;;27.47;17.57;;;5.40;99.90;;;;;;6249087;28;20483;-62
2022/12/05 05:14:37;;;;;;;26.97;17.30;;;5.50;99.90;;;;;;6249199;28;20495;-62
2022/12/05 05:17:40;;;;;;;20.80;15.53;;;5.50;99.90;;;;;;6248839;28;20703;-62
2022/12/05 05:20:44;;;;;;;21.00;13.97;;;5.50;99.90;;;;;;6248982;28;20524;-63
2022/12/05 05:23:48;;;;;;;28.10;16.17;;;5.60;99.90;;;;;;6248748;28;20443;-63
2022/12/05 05:26:52;;;;;;;24.57;14.87;;;5.60;99.90;;;;;;6248804;28;20447;-63
2022/12/05 05:29:59;;;;;;;21.33;15.43;;;5.60;99.90;;;;;;6248592;28;20848;-63
2022/12/05 05:33:02;;;;;;;21.87;15.60;;;5.70;99.90;;;;;;6248863;28;20467;-63
2022/12/05 05:36:07;;;;;;;25.77;14.27;;;5.60;99.90;;;;;;6248965;28;20501;-63
2022/12/05 05:39:15;;;;;;;19.63;13.13;;;5.60;99.90;;;;;;6248449;28;20498;-63
2022/12/05 05:42:18;;;;;;;18.00;12.90;;;5.70;99.90;;;;;;6248518;28;20933;-63
2022/12/05 05:45:22;;;;;;;22.70;13.80;;;5.70;99.90;;;;;;6248458;28;20997;-63
2022/12/05 05:48:25;;;;;;;25.20;16.10;;;5.60;99.90;;;;;;6263019;28;20467;-64
2022/12/05 05:51:29;;;;;;;22.47;13.37;;;5.70;99.90;;;;;;6250811;28;20474;-63
2022/12/05 05:54:33;;;;;;;19.47;13.83;;;5.70;99.90;;;;;;6248646;28;20529;-63
2022/12/05 05:57:36;;;;;;;24.70;14.70;;;5.70;99.90;;;;;;6252896;28;21024;-63
2022/12/05 06:00:40;;;;;;;18.33;12.53;;;5.70;99.90;;;;;;6252877;28;20548;-63
2022/12/05 06:03:43;;;;;;;18.10;12.70;;;5.80;99.90;;;;;;6244141;28;20482;-63
2022/12/05 06:06:47;;;;;;;21.90;15.80;;;5.80;99.90;;;;;;6252678;28;20497;-63
2022/12/05 06:09:51;;;;;;;16.20;12.60;;;5.80;99.90;;;;;;6252737;28;20471;-63
2022/12/05 06:12:54;;;;;;;18.67;13.73;;;5.90;99.90;;;;;;6252517;28;20958;-63
2022/12/05 06:15:57;;;;;;;19.53;13.50;;;5.90;99.90;;;;;;6252584;28;20492;-63
2022/12/05 06:19:01;;;;;;;18.70;13.23;;;5.90;99.90;;;;;;6252564;28;20463;-63
2022/12/05 06:22:04;;;;;;;19.77;14.33;;;5.90;99.90;;;;;;6252482;28;20959;-63
2022/12/05 06:25:09;;;;;;;19.60;14.40;;;6.00;99.90;;;;;;6252678;28;20494;-63
2022/12/05 06:28:12;;;;;;;16.83;13.50;;;6.10;99.90;;;;;;6252144;28;20467;-63
2022/12/05 06:31:19;;;;;;;16.87;13.23;;;6.10;99.90;;;;;;6252428;28;20466;-62
2022/12/05 06:34:22;;;;;;;16.67;12.50;;;6.20;99.90;;;;;;6252158;28;20482;-63
2022/12/05 06:37:25;;;;;;;16.87;12.60;;;6.10;99.90;;;;;;6252252;28;20478;-63
2022/12/05 06:40:30;;;;;;;19.67;14.07;;;6.10;99.90;;;;;;6251859;28;20483;-63
2022/12/05 06:43:33;;;;;;;19.90;14.40;;;6.00;99.90;;;;;;6251710;28;20479;-63
2022/12/05 06:46:37;;;;;;;23.23;15.20;;;6.00;99.90;;;;;;6252662;28;20483;-64
2022/12/05 06:49:40;;;;;;;23.07;14.60;;;6.10;99.90;;;;;;6260540;28;20483;-63
2022/12/05 06:52:43;;;;;;;20.67;13.27;;;6.00;99.90;;;;;;6251616;28;20471;-63
2022/12/05 06:55:57;;;;;;;20.57;14.20;;;5.90;99.90;;;;;;6251591;28;20970;-63
2022/12/05 06:59:00;;;;;;;20.47;14.67;;;5.90;99.90;;;;;;6251825;28;20499;-63
2022/12/05 07:02:06;;;;;;;21.73;14.40;;;6.00;99.90;;;;;;6254583;28;20546;-63
2022/12/05 07:05:11;;;;;;;22.90;16.57;;;6.00;99.90;;;;;;6254864;28;20472;-63
2022/12/05 07:08:14;;;;;;;23.07;14.03;;;6.00;99.90;;;;;;6253383;28;20486;-63
2022/12/05 07:11:19;;;;;;;21.87;15.87;;;6.00;99.90;;;;;;6252495;28;20487;-63
2022/12/05 07:14:22;;;;;;;18.07;13.73;;;6.00;99.90;;;;;;6253345;28;20471;-63
2022/12/05 07:17:45;;;;;;;21.17;14.53;;;6.00;99.90;;;;;;6250525;28;20553;-63
2022/12/05 07:20:56;;;;;;;19.40;13.40;;;6.00;99.90;;;;;;6250935;28;20850;-63
2022/12/05 07:24:16;;;;;;;20.57;14.67;;;6.10;99.90;;;;;;6251436;28;20464;-63
2022/12/05 07:27:20;;;;;;;20.10;15.10;;;6.20;99.90;;;;;;6251244;28;20475;-63
2022/12/05 07:30:29;;;;;;;21.63;14.97;;;6.00;99.90;;;;;;6250563;28;20974;-63
2022/12/05 07:33:33;;;;;;;20.00;14.40;;;6.10;99.90;;;;;;6250658;28;20906;-63
2022/12/05 07:36:36;;;;;;;17.23;12.07;;;6.10;99.90;;;;;;6250698;28;20966;-63
2022/12/05 07:39:39;;;;;;;18.77;14.27;;;6.20;99.90;;;;;;6250895;28;20482;-64
2022/12/05 07:42:44;;;;;;;19.37;14.20;;;6.20;99.90;;;;;;6250254;28;20471;-64
2022/12/05 07:45:47;;;;;;;21.10;13.53;;;6.20;99.90;;;;;;6250619;28;20467;-63
2022/12/05 07:48:51;;;;;;;17.50;14.83;;;6.20;99.90;;;;;;6260257;28;20546;-63
2022/12/05 07:51:54;;;;;;;19.60;14.47;;;6.20;99.90;;;;;;6250261;28;20931;-63
2022/12/05 07:54:58;;;;;;;20.30;14.80;;;6.30;99.90;;;;;;6250616;28;20482;-63
2022/12/05 07:58:02;;;;;;;23.00;14.70;;;6.30;99.90;;;;;;6249934;28;20471;-63
2022/12/05 08:01:07;;;;;;;22.90;14.97;;;6.40;99.90;;;;;;6250006;28;20649;-63
2022/12/05 08:04:10;;;;;;;18.53;15.53;;;6.40;99.90;;;;;;6249949;28;20477;-63
2022/12/05 08:07:17;;;;;;;21.90;15.97;;;6.40;99.90;;;;;;6250395;28;20475;-63
2022/12/05 08:10:20;;;;;;;23.10;16.30;;;6.40;99.90;;;;;;6247632;28;20507;-63
2022/12/05 08:13:25;;;;;;;19.43;16.03;;;6.50;99.90;;;;;;6240598;28;20475;-63
2022/12/05 08:16:30;;;;;;;22.63;16.70;;;6.50;99.90;;;;;;6249546;28;20478;-64
2022/12/05 08:19:34;;;;;;;22.30;16.77;;;6.60;99.90;;;;;;6249017;28;20939;-63
2022/12/05 08:22:37;;;;;;;20.73;15.27;;;6.70;99.90;;;;;;6249700;28;20482;-64
2022/12/05 08:25:40;;;;;;;21.53;15.83;;;6.80;99.90;;;;;;6250154;28;20475;-63
2022/12/05 08:28:45;;;;;;;25.80;14.70;;;6.70;99.90;;;;;;6248861;28;20553;-63
2022/12/05 08:31:50;;;;;;;19.00;15.20;;;6.70;99.90;;;;;;6249630;28;20792;-63
2022/12/05 08:34:54;;;;;;;18.90;14.00;;;6.80;99.90;;;;;;6249365;28;20959;-63
2022/12/05 08:37:57;;;;;;;19.93;14.13;;;6.90;99.90;;;;;;6249579;28;20479;-63
2022/12/05 08:41:01;;;;;;;22.70;16.37;;;7.00;99.90;;;;;;6249265;28;20490;-63
2022/12/05 08:44:07;;;;;;;20.23;16.50;;;6.80;99.90;;;;;;6249255;28;20482;-63
2022/12/05 08:47:10;;;;;;;22.20;17.23;;;6.90;99.90;;;;;;6254320;28;20479;-64
2022/12/05 08:50:14;;;;;;;20.03;15.80;;;7.00;99.90;;;;;;6253260;28;20479;-64
2022/12/05 08:53:17;;;;;;;20.00;15.20;;;6.80;99.90;;;;;;6249031;28;20780;-64
2022/12/05 08:56:20;;;;;;;19.13;15.20;;;7.00;99.90;;;;;;6249308;28;20506;-64
2022/12/05 08:59:30;;;;;;;23.00;15.87;;;7.10;99.90;;;;;;6249396;28;20804;-63
2022/12/05 09:02:34;;;;;;;18.30;15.20;;;7.20;99.90;;;;;;6248771;28;20467;-61
2022/12/05 09:05:37;;;;;;;19.10;16.10;;;7.40;99.90;;;;;;6245218;28;20479;-62
2022/12/05 09:08:41;;;;;;;22.27;15.87;;;7.30;99.90;;;;;;6247445;28;21008;-63
2022/12/05 09:11:47;;;;;;;19.90;14.67;;;7.00;99.90;;;;;;6246850;28;20502;-62
2022/12/05 09:14:52;;;;;;;20.07;15.10;;;6.90;99.90;;;;;;6242949;28;20424;-63
2022/12/05 09:17:55;;;;;;;18.97;15.30;;;6.70;99.90;;;;;;6247475;28;20454;-63
2022/12/05 09:20:59;;;;;;;19.93;14.53;;;6.50;99.90;;;;;;6222570;28;20468;-60
2022/12/05 09:24:02;;;;;;;22.50;16.37;;;6.60;99.90;;;;;;6222132;28;20452;-62
2022/12/05 09:27:05;;;;;;;21.53;15.83;;;6.60;99.90;;;;;;6222814;28;20456;-61
2022/12/05 09:30:11;;;;;;;21.60;15.60;;;6.50;99.90;;;;;;6223417;28;20546;-60
2022/12/05 09:33:14;;;;;;;17.13;15.33;;;6.50;99.90;;;;;;6227748;28;20538;-61
2022/12/05 09:36:20;;;;;;;26.33;16.03;;;6.60;99.90;;;;;;6226865;28;20806;-60
2022/12/05 09:39:23;;;;;;;20.23;15.93;;;6.70;99.90;;;;;;6227011;28;20487;-61
2022/12/05 09:42:38;;;;;;;21.13;15.03;;;6.90;99.90;;;;;;6227076;28;20480;-61
2022/12/05 09:45:51;;;;;;;20.93;14.90;;;6.90;99.90;;;;;;6230000;28;20830;-61
2022/12/05 09:48:57;;;;;;;20.37;14.37;;;7.00;99.90;;;;;;6260255;28;20969;-60
2022/12/05 09:52:02;;;;;;;16.87;14.50;;;7.10;99.90;;;;;;6251038;28;20927;-60
2022/12/05 09:55:10;;;;;;;18.20;13.60;;;7.20;99.90;;;;;;6251417;28;20471;-61
2022/12/05 09:58:28;;;;;;;16.97;14.00;;;7.30;99.90;;;;;;6251492;28;20471;-60
2022/12/05 10:01:40;;;;;;;17.27;14.27;;;7.30;99.90;;;;;;6250807;28;20487;-61
2022/12/05 10:04:56;;;;;;;18.13;14.37;;;7.30;99.90;;;;;;6251683;28;20471;-61
2022/12/05 10:08:10;;;;;;;20.23;15.43;;;7.20;99.90;;;;;;6251401;28;20830;-61
2022/12/05 10:11:18;;;;;;;20.33;14.97;;;7.10;99.90;;;;;;6250570;28;20963;-60
2022/12/05 10:14:34;;;;;;;20.97;16.00;;;7.10;99.90;;;;;;6250601;28;21129;-60
2022/12/05 10:17:42;;;;;;;21.67;14.73;;;7.10;99.90;;;;;;6250708;28;20951;-60
2022/12/05 10:20:50;;;;;;;18.67;14.13;;;7.10;99.90;;;;;;6224676;28;20463;-60
2022/12/05 10:23:56;;;;;;;19.47;13.90;;;7.20;99.90;;;;;;6225752;28;20429;-60
2022/12/05 10:27:05;;;;;;;18.93;14.73;;;7.10;99.90;;;;;;6226372;28;20436;-60
2022/12/05 10:30:14;;;;;;;19.40;13.77;;;7.10;99.90;;;;;;6226009;28;20480;-61
2022/12/05 10:33:22;;;;;;;18.17;15.13;;;7.20;99.90;;;;;;6226372;28;20452;-60
2022/12/05 10:36:25;;;;;;;15.67;14.00;;;7.30;99.90;;;;;;6225402;28;20464;-61
2022/12/05 10:39:29;;;;;;;16.50;14.40;;;7.40;99.90;;;;;;6225704;28;20495;-61
2022/12/05 10:42:35;;;;;;;19.60;14.97;;;7.40;99.90;;;;;;6224997;28;20482;-60
2022/12/05 10:45:43;;;;;;;17.60;14.73;;;7.50;99.90;;;;;;6226199;28;20464;-61
2022/12/05 10:48:47;;;;;;;22.27;14.80;;;7.70;99.90;;;;;;6252436;28;20862;-60
2022/12/05 10:51:51;;;;;;;18.80;14.73;;;8.10;99.90;;;;;;6249693;28;20471;-60
2022/12/05 10:55:00;;;;;;;19.93;14.60;;;8.30;99.90;;;;;;6249931;28;20484;-60
2022/12/05 10:58:12;;;;;;;16.40;13.10;;;8.10;99.90;;;;;;6250147;28;20479;-60
2022/12/05 11:01:19;;;;;;;16.50;13.47;;;8.20;99.90;;;;;;6249172;28;20468;-60
2022/12/05 11:04:28;;;;;;;17.50;14.37;;;8.20;99.90;;;;;;6250070;28;20472;-60
2022/12/05 11:07:35;;;;;;;16.77;14.47;;;8.10;99.90;;;;;;6249615;28;20479;-60
2022/12/05 11:10:42;;;;;;;19.97;14.70;;;8.00;99.90;;;;;;6249205;28;20471;-60
2022/12/05 11:13:53;;;;;;;19.00;13.60;;;8.00;99.90;;;;;;6249035;28;20527;-60
2022/12/05 11:16:59;;;;;;;16.97;13.43;;;8.00;99.90;;;;;;6249639;28;20467;-61
2022/12/05 11:20:13;;;;;;;15.27;12.40;;;8.10;99.90;;;;;;6248978;28;20506;-60
2022/12/05 11:23:23;;;;;;;19.93;13.90;;;8.20;99.90;;;;;;6249760;28;20487;-60
2022/12/05 11:26:35;;;;;;;17.70;14.10;;;8.20;99.90;;;;;;6244991;28;20468;-61
2022/12/05 11:29:39;;;;;;;16.47;12.53;;;8.20;99.90;;;;;;6249514;28;20475;-61
2022/12/05 11:32:43;;;;;;;17.63;13.83;;;8.20;99.90;;;;;;6248894;28;20494;-61
2022/12/05 11:35:49;;;;;;;17.07;12.60;;;8.10;99.90;;;;;;6249205;28;20760;-61
2022/12/05 11:38:53;;;;;;;17.33;14.10;;;8.10;99.90;;;;;;6248688;28;20903;-60
2022/12/05 11:42:08;;;;;;;17.90;13.40;;;7.90;99.90;;;;;;6249247;28;20440;-62
2022/12/05 11:45:36;;;;;;;14.37;12.90;;;7.90;99.90;;;;;;6249399;28;20549;-63
2022/12/05 11:49:00;;;;;;;16.90;13.30;;;7.90;99.90;;;;;;6250049;28;20525;-62
2022/12/05 11:52:21;;;;;;;15.20;12.90;;;7.90;99.90;;;;;;6245729;28;20487;-62
2022/12/05 11:55:29;;;;;;;18.73;13.43;;;8.00;99.90;;;;;;6247463;28;20507;-62
2022/12/05 11:58:46;;;;;;;14.50;12.67;;;8.10;99.90;;;;;;6247859;28;20494;-63
2022/12/05 12:01:58;;;;;;;14.93;12.00;;;8.30;99.90;;;;;;6232785;28;20486;-62
2022/12/05 12:05:13;;;;;;;16.23;12.60;;;8.40;99.90;;;;;;6245879;28;20480;-62
2022/12/05 12:08:24;;;;;;;15.23;12.07;;;8.50;99.90;;;;;;6247919;28;20541;-62
2022/12/05 12:11:34;;;;;;;14.67;13.10;;;8.70;99.90;;;;;;6248082;28;20479;-62
2022/12/05 12:14:46;;;;;;;19.07;13.23;;;8.70;99.90;;;;;;6250415;28;20471;-62
2022/12/05 12:18:00;;;;;;;15.50;11.93;;;8.80;99.90;;;;;;6248500;28;20443;-61
2022/12/05 12:21:16;;;;;;;17.23;13.40;;;8.70;99.90;;;;;;6224018;28;20538;-63
2022/12/05 12:24:27;;;;;;;16.90;12.00;;;8.50;99.90;;;;;;6223973;28;20856;-61
2022/12/05 12:27:43;;;;;;;17.70;12.30;;;8.50;99.90;;;;;;6224182;28;20468;-61
2022/12/05 12:31:02;;;;;;;13.67;12.23;;;8.30;99.90;;;;;;6210195;28;20503;-61
2022/12/05 12:34:21;;;;;;;14.67;11.83;;;8.20;99.90;;;;;;6223649;28;20975;-61
2022/12/05 12:37:34;;;;;;;18.53;12.77;;;8.20;99.90;;;;;;6223551;28;20477;-61
2022/12/05 12:40:48;;;;;;;14.07;12.60;;;8.20;99.90;;;;;;6222851;28;20496;-61
2022/12/05 12:44:03;;;;;;;14.80;12.93;;;8.00;99.90;;;;;;6223628;28;20476;-61
2022/12/05 12:47:15;;;;;;;15.20;12.47;;;7.80;99.90;;;;;;6232426;28;20458;-61
2022/12/05 12:50:21;;;;;;;15.90;12.23;;;7.70;99.90;;;;;;6251979;28;20794;-60
2022/12/05 12:53:41;;;;;;;17.80;14.50;;;7.50;99.90;;;;;;6247768;28;20479;-60
2022/12/05 12:56:53;;;;;;;17.60;12.80;;;7.50;99.90;;;;;;6247146;28;20451;-61
2022/12/05 13:00:04;;;;;;;17.27;13.50;;;7.20;99.90;;;;;;6245119;28;20504;-61
2022/12/05 13:03:13;;;;;;;15.07;12.90;;;7.20;99.90;;;;;;6246533;28;20460;-61
2022/12/05 13:06:23;;;;;;;23.43;13.73;;;7.20;99.90;;;;;;6249353;28;20742;-61
2022/12/05 13:09:30;;;;;;;15.20;13.60;;;7.20;99.90;;;;;;6250967;28;20540;-61
2022/12/05 13:12:39;;;;;;;17.20;13.87;;;7.20;99.90;;;;;;6248798;28;20919;-62
2022/12/05 13:15:46;;;;;;;17.93;13.57;;;7.20;99.90;;;;;;6238325;28;20642;-62
2022/12/05 13:18:50;;;;;;;20.93;17.10;;;7.20;99.90;;;;;;6251646;28;20478;-61
2022/12/05 13:21:55;;;;;;;17.97;14.10;;;7.20;99.90;;;;;;6251507;28;20806;-61
2022/12/05 13:24:59;;;;;;;23.10;15.10;;;7.40;99.90;;;;;;6249107;28;20477;-61
2022/12/05 13:28:07;;;;;;;14.50;12.17;;;7.50;99.90;;;;;;6251600;28;20582;-61
2022/12/05 13:31:15;;;;;;;15.67;13.60;;;7.50;99.90;;;;;;6251820;28;20479;-61
2022/12/05 13:34:46;;;;;;;14.83;12.10;;;7.60;99.90;;;;;;6235299;28;20896;-62
2022/12/05 13:44:39;;;;;;;24.70;17.20;;;7.60;99.90;;;;;;6251331;28;20475;-61
2022/12/05 13:47:55;;;;;;;19.87;15.23;;;7.60;99.90;;;;;;6261546;28;20489;-60
2022/12/05 13:51:03;;;;;;;18.40;14.33;;;7.70;99.90;;;;;;6252947;28;20521;-60
2022/12/05 13:54:13;;;;;;;19.73;14.00;;;7.70;99.90;;;;;;6251970;28;20486;-60
2022/12/05 13:57:45;;;;;;;19.80;12.70;;;7.50;99.90;;;;;;6251808;28;20493;-60
2022/12/05 14:00:50;;;;;;;16.67;12.20;;;7.20;99.90;;;;;;6251145;28;20552;-59
2022/12/05 14:03:56;;;;;;;16.40;12.73;;;7.20;99.90;;;;;;6251617;28;20489;-60
2022/12/05 14:06:59;;;;;;;15.97;12.57;;;7.20;99.90;;;;;;6251202;28;20471;-64
2022/12/05 14:10:02;;;;;;;19.50;14.33;;;7.20;99.90;;;;;;6248982;28;20954;-60
2022/12/05 14:13:40;;;;;;;17.63;12.60;;;7.30;99.90;;;;;;6251254;28;20501;-60
2022/12/05 14:16:46;;;;;;;20.10;14.27;;;7.30;99.90;;;;;;6250324;28;20490;-60
2022/12/05 14:20:19;;;;;;;22.20;14.10;;;7.20;99.90;;;;;;6250139;28;20565;-61
2022/12/05 14:23:50;;;;;;;24.67;15.40;;;7.10;99.90;;;;;;6249291;28;20800;-60
2022/12/05 14:27:06;;;;;;;23.90;15.80;;;6.80;99.90;;;;;;6250723;28;20763;-60
2022/12/05 14:30:21;;;;;;;20.63;15.30;;;6.80;99.90;;;;;;6249509;28;21242;-61
2022/12/05 14:33:26;;;;;;;20.23;14.37;;;6.90;99.90;;;;;;6253618;28;20506;-60
2022/12/05 14:36:30;;;;;;;25.17;15.87;;;6.90;99.90;;;;;;6242155;28;20483;-60
2022/12/05 14:39:40;;;;;;;21.20;15.63;;;6.90;99.90;;;;;;6250240;28;20486;-61
2022/12/05 14:42:52;;;;;;;21.37;15.93;;;6.90;99.90;;;;;;6250977;28;20478;-60
2022/12/05 14:46:00;;;;;;;25.67;16.03;;;6.90;99.90;;;;;;6250052;28;20614;-60
2022/12/05 14:49:37;;;;;;;21.47;14.77;;;6.90;99.90;;;;;;6250745;28;20505;-61
2022/12/05 14:53:18;;;;;;;24.77;16.07;;;7.00;99.90;;;;;;6249692;28;20499;-60
2022/12/05 14:56:23;;;;;;;22.73;16.07;;;7.00;99.90;;;;;;6225334;28;20477;-60
2022/12/05 14:59:30;;;;;;;26.93;18.33;;;7.10;99.90;;;;;;6225043;28;20479;-60
2022/12/05 15:02:38;;;;;;;31.07;18.30;;;7.10;99.90;;;;;;6225228;28;20476;-60
2022/12/05 15:05:44;;;;;;;26.53;17.00;;;7.20;99.90;;;;;;6248610;28;20498;-60
2022/12/05 15:08:50;;;;;;;24.30;17.23;;;7.10;99.90;;;;;;6249775;28;20455;-60
2022/12/05 15:11:53;;;;;;;24.30;17.97;;;7.00;99.90;;;;;;6250030;28;20439;-61
2022/12/05 15:15:06;;;;;;;27.97;18.40;;;7.00;99.90;;;;;;6249985;28;20971;-61
2022/12/05 15:18:19;;;;;;;30.63;19.70;;;7.00;99.90;;;;;;6249622;28;20471;-60
2022/12/05 15:21:30;;;;;;;31.27;19.00;;;7.00;99.90;;;;;;6249090;28;20482;-60
2022/12/05 15:24:38;;;;;;;31.03;17.80;;;7.00;99.90;;;;;;6250990;28;20644;-60
2022/12/05 15:27:50;;;;;;;29.97;17.80;;;6.90;99.90;;;;;;6250964;28;20483;-60
2022/12/05 15:30:55;;;;;;;27.83;18.00;;;6.90;99.90;;;;;;6251198;28;20494;-60
2022/12/05 15:34:05;;;;;;;23.50;16.33;;;6.80;99.90;;;;;;6250810;28;21038;-60
2022/12/05 15:37:15;;;;;;;24.83;17.73;;;6.80;99.90;;;;;;6251407;28;20482;-60
2022/12/05 15:40:20;;;;;;;27.03;17.23;;;6.70;99.90;;;;;;6247183;28;20483;-61
2022/12/05 15:43:30;;;;;;;31.17;19.20;;;6.60;99.90;;;;;;6251129;28;20557;-60
2022/12/05 15:46:35;;;;;;;26.93;16.90;;;6.60;99.90;;;;;;6251029;28;20826;-61
2022/12/05 15:49:39;;;;;;;21.63;15.17;;;6.60;99.90;;;;;;6242970;28;20499;-61
2022/12/05 15:52:47;;;;;;;24.60;14.97;;;6.60;99.90;;;;;;6252572;28;20558;-61
2022/12/05 15:55:55;;;;;;;26.20;16.90;;;6.60;99.90;;;;;;6252017;28;20955;-61
2022/12/05 15:59:04;;;;;;;24.83;15.63;;;6.70;99.90;;;;;;6250180;28;20463;-61
2022/12/05 16:02:15;;;;;;;34.30;17.67;;;6.70;99.90;;;;;;6250167;28;20474;-61
2022/12/05 16:05:22;;;;;;;26.60;17.33;;;6.70;99.90;;;;;;6250242;28;20494;-61
2022/12/05 16:08:34;;;;;;;27.10;16.07;;;6.60;99.90;;;;;;6250234;28;20532;-61
2022/12/05 16:11:37;;;;;;;24.37;15.27;;;6.70;99.90;;;;;;6249987;28;20479;-61
2022/12/05 16:14:40;;;;;;;24.80;15.17;;;6.70;99.90;;;;;;6249728;28;20971;-60
2022/12/05 16:18:05;;;;;;;21.50;16.93;;;6.70;99.90;;;;;;6249521;28;20554;-61